createdAt,value
2017-06-01T00:00:31.949Z,0
2017-06-01T00:01:32.853Z,0
2017-06-01T00:02:32.631Z,0
2017-06-01T00:03:32.964Z,0
2017-06-01T00:04:32.372Z,0
2017-06-01T00:05:32.713Z,0
2017-06-01T00:06:33.318Z,0
2017-06-01T00:07:32.779Z,0
2017-06-01T00:08:32.816Z,0
2017-06-01T00:09:32.533Z,0
2017-06-01T00:10:33.189Z,0
2017-06-01T00:11:33.477Z,0
2017-06-01T00:12:33.244Z,0
2017-06-01T00:13:33.272Z,0
2017-06-01T00:14:32.681Z,0
2017-06-01T00:15:33.337Z,0
2017-06-01T00:16:32.739Z,0
2017-06-01T00:17:33.645Z,0
2017-06-01T00:18:33.151Z,0
2017-06-01T00:19:33.465Z,0
2017-06-01T00:20:33.173Z,0
2017-06-01T00:21:33.202Z,0
2017-06-01T00:22:33.171Z,0
2017-06-01T00:23:33.572Z,0
2017-06-01T00:24:33.604Z,0
2017-06-01T00:25:33.637Z,0
2017-06-01T00:26:33.046Z,0
2017-06-01T00:27:33.635Z,0
2017-06-01T00:28:33.416Z,0
2017-06-01T00:29:33.762Z,0
2017-06-01T00:30:33.791Z,0
2017-06-01T00:31:33.814Z,0
2017-06-01T00:32:33.499Z,0
2017-06-01T00:33:33.564Z,0
2017-06-01T00:34:33.611Z,0
2017-06-01T00:35:33.634Z,0
2017-06-01T00:36:33.659Z,0
2017-06-01T00:37:33.949Z,0
2017-06-01T00:38:34.032Z,0
2017-06-01T00:39:34.054Z,0
2017-06-01T00:40:33.778Z,0
2017-06-01T00:41:34.118Z,0
2017-06-01T00:42:34.404Z,0
2017-06-01T00:43:33.872Z,0
2017-06-01T00:44:33.963Z,0
2017-06-01T00:45:33.609Z,0
2017-06-01T00:46:33.651Z,0
2017-06-01T00:47:33.923Z,0
2017-06-01T00:48:34.020Z,0
2017-06-01T00:49:34.369Z,0
2017-06-01T00:50:34.068Z,0
2017-06-01T00:51:34.111Z,0
2017-06-01T00:52:34.079Z,0
2017-06-01T00:53:34.481Z,0
2017-06-01T00:54:34.505Z,0
2017-06-01T00:55:34.243Z,0
2017-06-01T00:56:34.574Z,0
2017-06-01T00:57:34.539Z,0
2017-06-01T00:58:34.326Z,0
2017-06-01T00:59:34.670Z,0
2017-06-01T01:00:34.385Z,0
2017-06-01T01:01:34.723Z,0
2017-06-01T01:02:34.379Z,0
2017-06-01T01:03:34.471Z,0
2017-06-01T01:04:34.502Z,0
2017-06-01T01:05:34.534Z,0
2017-06-01T01:06:34.558Z,0
2017-06-01T01:07:35.155Z,0
2017-06-01T01:08:34.937Z,0
2017-06-01T01:09:34.020Z,0
2017-06-01T01:10:34.678Z,0
2017-06-01T01:11:35.022Z,0
2017-06-01T01:12:35.308Z,0
2017-06-01T01:13:34.465Z,0
2017-06-01T01:14:34.805Z,0
2017-06-01T01:15:34.506Z,0
2017-06-01T01:16:35.175Z,0
2017-06-01T01:17:35.464Z,0
2017-06-01T01:18:35.016Z,0
2017-06-01T01:19:34.641Z,0
2017-06-01T01:20:34.978Z,0
2017-06-01T01:21:34.695Z,0
2017-06-01T01:22:35.612Z,0
2017-06-01T01:23:35.389Z,0
2017-06-01T01:24:35.102Z,0
2017-06-01T01:25:34.531Z,0
2017-06-01T01:26:35.477Z,0
2017-06-01T01:27:35.757Z,0
2017-06-01T01:28:35.539Z,0
2017-06-01T01:29:35.270Z,0
2017-06-01T01:30:35.278Z,0
2017-06-01T01:31:35.648Z,0
2017-06-01T01:32:35.625Z,0
2017-06-01T01:33:35.693Z,0
2017-06-01T01:34:35.709Z,0
2017-06-01T01:35:35.747Z,0
2017-06-01T01:36:35.468Z,0
2017-06-01T01:37:35.425Z,0
2017-06-01T01:38:35.889Z,0
2017-06-01T01:39:35.860Z,0
2017-06-01T01:40:35.587Z,0
2017-06-01T01:41:35.931Z,0
2017-06-01T01:42:36.208Z,0
2017-06-01T01:43:35.981Z,0
2017-06-01T01:44:36.037Z,0
2017-06-01T01:45:35.734Z,0
2017-06-01T01:46:35.452Z,0
2017-06-01T01:47:36.360Z,0
2017-06-01T01:48:35.505Z,0
2017-06-01T01:49:36.166Z,0
2017-06-01T01:50:35.886Z,0
2017-06-01T01:51:36.227Z,0
2017-06-01T01:52:36.184Z,0
2017-06-01T01:53:35.969Z,0
2017-06-01T01:54:36.001Z,0
2017-06-01T01:55:36.038Z,0
2017-06-01T01:56:35.752Z,0
2017-06-01T01:57:36.288Z,0
2017-06-01T01:58:35.810Z,0
2017-06-01T01:59:35.840Z,0
2017-06-01T02:00:36.500Z,0
2017-06-01T02:01:36.524Z,0
2017-06-01T02:02:36.813Z,0
2017-06-01T02:03:36.589Z,0
2017-06-01T02:04:35.678Z,0
2017-06-01T02:05:36.334Z,0
2017-06-01T02:06:36.676Z,0
2017-06-01T02:07:36.961Z,0
2017-06-01T02:08:36.762Z,0
2017-06-01T02:09:36.767Z,0
2017-06-01T02:10:36.799Z,0
2017-06-01T02:11:36.828Z,0
2017-06-01T02:12:37.108Z,0
2017-06-01T02:13:36.885Z,0
2017-06-01T02:14:36.606Z,0
2017-06-01T02:15:36.699Z,0
2017-06-01T02:16:36.668Z,0
2017-06-01T02:17:36.947Z,0
2017-06-01T02:18:36.734Z,0
2017-06-01T02:19:37.066Z,0
2017-06-01T02:20:36.788Z,0
2017-06-01T02:21:37.131Z,0
2017-06-01T02:22:37.053Z,0
2017-06-01T02:23:36.878Z,0
2017-06-01T02:24:36.902Z,0
2017-06-01T02:25:36.934Z,0
2017-06-01T02:26:37.281Z,0
2017-06-01T02:27:37.245Z,0
2017-06-01T02:28:37.332Z,0
2017-06-01T02:29:36.743Z,0
2017-06-01T02:30:37.088Z,0
2017-06-01T02:31:37.117Z,0
2017-06-01T02:32:37.653Z,0
2017-06-01T02:33:37.172Z,0
2017-06-01T02:34:36.890Z,0
2017-06-01T02:35:37.551Z,0
2017-06-01T02:36:37.264Z,0
2017-06-01T02:37:37.546Z,0
2017-06-01T02:38:37.637Z,0
2017-06-01T02:39:37.680Z,0
2017-06-01T02:40:37.390Z,0
2017-06-01T02:41:37.729Z,0
2017-06-01T02:42:38.029Z,0
2017-06-01T02:43:37.482Z,0
2017-06-01T02:44:37.191Z,0
2017-06-01T02:45:37.224Z,0
2017-06-01T02:46:37.568Z,0
2017-06-01T02:47:37.531Z,0
2017-06-01T02:48:37.626Z,0
2017-06-01T02:49:37.649Z,0
2017-06-01T02:50:37.371Z,0
2017-06-01T02:51:38.024Z,0
2017-06-01T02:52:37.949Z,0
2017-06-01T02:53:38.078Z,0
2017-06-01T02:54:37.808Z,0
2017-06-01T02:55:38.148Z,0
2017-06-01T02:56:37.861Z,0
2017-06-01T02:57:37.832Z,0
2017-06-01T02:58:38.635Z,0
2017-06-01T02:59:38.263Z,0
2017-06-01T03:00:38.292Z,0
2017-06-01T03:01:38.320Z,0
2017-06-01T03:02:38.610Z,0
2017-06-01T03:03:37.759Z,0
2017-06-01T03:04:38.413Z,0
2017-06-01T03:05:37.816Z,0
2017-06-01T03:06:38.169Z,0
2017-06-01T03:07:38.761Z,0
2017-06-01T03:08:38.225Z,0
2017-06-01T03:09:38.571Z,0
2017-06-01T03:10:38.598Z,0
2017-06-01T03:11:38.625Z,0
2017-06-01T03:12:38.594Z,0
2017-06-01T03:13:38.674Z,0
2017-06-01T03:14:38.087Z,0
2017-06-01T03:15:38.763Z,0
2017-06-01T03:16:38.781Z,0
2017-06-01T03:17:38.736Z,0
2017-06-01T03:18:38.206Z,0
2017-06-01T03:19:38.867Z,0
2017-06-01T03:20:38.592Z,0
2017-06-01T03:21:38.917Z,0
2017-06-01T03:22:38.880Z,0
2017-06-01T03:23:38.058Z,0
2017-06-01T03:24:38.707Z,0
2017-06-01T03:25:38.732Z,0
2017-06-01T03:26:39.072Z,0
2017-06-01T03:27:39.040Z,0
2017-06-01T03:28:38.501Z,0
2017-06-01T03:29:39.163Z,0
2017-06-01T03:30:39.233Z,0
2017-06-01T03:31:38.285Z,0
2017-06-01T03:32:38.880Z,0
2017-06-01T03:33:39.287Z,0
2017-06-01T03:34:39.324Z,0
2017-06-01T03:35:39.344Z,0
2017-06-01T03:36:39.053Z,0
2017-06-01T03:37:39.653Z,0
2017-06-01T03:38:39.434Z,0
2017-06-01T03:39:39.153Z,0
2017-06-01T03:40:39.179Z,0
2017-06-01T03:41:39.209Z,0
2017-06-01T03:42:39.245Z,0
2017-06-01T03:43:39.835Z,0
2017-06-01T03:44:39.300Z,0
2017-06-01T03:45:39.637Z,0
2017-06-01T03:46:39.046Z,0
2017-06-01T03:47:39.077Z,0
2017-06-01T03:48:39.982Z,0
2017-06-01T03:49:39.769Z,0
2017-06-01T03:50:39.164Z,0
2017-06-01T03:51:39.519Z,0
2017-06-01T03:52:39.849Z,0
2017-06-01T03:53:39.826Z,0
2017-06-01T03:54:39.963Z,0
2017-06-01T03:55:39.625Z,0
2017-06-01T03:56:39.657Z,0
2017-06-01T03:57:39.998Z,0
2017-06-01T03:58:40.227Z,0
2017-06-01T03:59:40.063Z,0
2017-06-01T04:00:39.473Z,0
2017-06-01T04:01:39.497Z,0
2017-06-01T04:02:40.153Z,0
2017-06-01T04:03:40.430Z,0
2017-06-01T04:04:39.890Z,0
2017-06-01T04:05:39.607Z,0
2017-06-01T04:06:39.961Z,0
2017-06-01T04:07:40.300Z,0
2017-06-01T04:08:39.899Z,0
2017-06-01T04:09:40.428Z,0
2017-06-01T04:10:40.076Z,0
2017-06-01T04:11:40.409Z,0
2017-06-01T04:12:40.446Z,0
2017-06-01T04:13:40.727Z,0
2017-06-01T04:14:40.504Z,0
2017-06-01T04:15:40.536Z,0
2017-06-01T04:16:40.569Z,0
2017-06-01T04:17:40.593Z,0
2017-06-01T04:18:40.558Z,0
2017-06-01T04:19:40.655Z,0
2017-06-01T04:20:40.689Z,0
2017-06-01T04:21:40.407Z,0
2017-06-01T04:22:40.424Z,0
2017-06-01T04:23:40.719Z,0
2017-06-01T04:24:40.800Z,0
2017-06-01T04:25:40.832Z,0
2017-06-01T04:26:40.545Z,0
2017-06-01T04:27:40.577Z,0
2017-06-01T04:28:40.547Z,0
2017-06-01T04:29:40.334Z,0
2017-06-01T04:30:40.684Z,0
2017-06-01T04:31:41.009Z,0
2017-06-01T04:32:41.046Z,0
2017-06-01T04:33:40.711Z,0
2017-06-01T04:34:41.100Z,0
2017-06-01T04:35:40.816Z,0
2017-06-01T04:36:40.542Z,5
2017-06-01T04:37:41.190Z,5
2017-06-01T04:38:41.160Z,5
2017-06-01T04:39:41.252Z,5
2017-06-01T04:40:40.961Z,5
2017-06-01T04:41:40.365Z,5
2017-06-01T04:42:41.337Z,5
2017-06-01T04:43:41.018Z,5
2017-06-01T04:44:41.400Z,5
2017-06-01T04:45:40.807Z,5
2017-06-01T04:46:41.458Z,5
2017-06-01T04:47:41.179Z,5
2017-06-01T04:48:41.723Z,5
2017-06-01T04:49:41.239Z,5
2017-06-01T04:50:41.579Z,5
2017-06-01T04:51:41.288Z,5
2017-06-01T04:52:41.332Z,5
2017-06-01T04:53:40.927Z,5
2017-06-01T04:54:41.697Z,5
2017-06-01T04:55:41.105Z,5
2017-06-01T04:56:41.757Z,5
2017-06-01T04:57:41.198Z,5
2017-06-01T04:58:41.439Z,5
2017-06-01T04:59:41.848Z,5
2017-06-01T05:00:41.257Z,5
2017-06-01T05:01:41.597Z,5
2017-06-01T05:02:41.926Z,5
2017-06-01T05:03:41.908Z,5
2017-06-01T05:04:41.683Z,5
2017-06-01T05:05:41.716Z,5
2017-06-01T05:06:42.053Z,5
2017-06-01T05:07:41.448Z,5
2017-06-01T05:08:42.055Z,5
2017-06-01T05:09:42.152Z,5
2017-06-01T05:10:41.548Z,5
2017-06-01T05:11:41.890Z,5
2017-06-01T05:12:41.610Z,5
2017-06-01T05:13:41.891Z,5
2017-06-01T05:14:41.979Z,5
2017-06-01T05:15:42.018Z,5
2017-06-01T05:16:42.350Z,5
2017-06-01T05:17:42.123Z,5
2017-06-01T05:18:42.349Z,5
2017-06-01T05:19:41.508Z,5
2017-06-01T05:20:42.466Z,5
2017-06-01T05:21:42.190Z,5
2017-06-01T05:22:42.223Z,5
2017-06-01T05:23:42.815Z,10
2017-06-01T05:24:42.583Z,10
2017-06-01T05:25:42.300Z,10
2017-06-01T05:26:42.054Z,10
2017-06-01T05:27:42.367Z,10
2017-06-01T05:28:42.932Z,10
2017-06-01T05:29:42.737Z,10
2017-06-01T05:30:42.447Z,10
2017-06-01T05:31:41.865Z,10
2017-06-01T05:32:42.206Z,10
2017-06-01T05:33:41.920Z,10
2017-06-01T05:34:42.832Z,10
2017-06-01T05:35:42.924Z,10
2017-06-01T05:36:42.950Z,10
2017-06-01T05:37:42.983Z,10
2017-06-01T05:38:42.683Z,10
2017-06-01T05:39:42.984Z,10
2017-06-01T05:40:43.069Z,10
2017-06-01T05:41:42.795Z,10
2017-06-01T05:42:42.815Z,10
2017-06-01T05:43:42.853Z,10
2017-06-01T05:44:43.392Z,10
2017-06-01T05:45:42.906Z,10
2017-06-01T05:46:42.938Z,10
2017-06-01T05:47:42.970Z,10
2017-06-01T05:48:42.996Z,10
2017-06-01T05:49:43.593Z,10
2017-06-01T05:50:43.057Z,10
2017-06-01T05:51:42.778Z,10
2017-06-01T05:52:43.111Z,10
2017-06-01T05:53:43.452Z,10
2017-06-01T05:54:43.116Z,10
2017-06-01T05:55:43.202Z,10
2017-06-01T05:56:43.543Z,10
2017-06-01T05:57:43.263Z,10
2017-06-01T05:58:42.975Z,10
2017-06-01T05:59:43.885Z,10
2017-06-01T06:00:43.358Z,10
2017-06-01T06:01:43.383Z,10
2017-06-01T06:02:43.727Z,10
2017-06-01T06:03:43.756Z,10
2017-06-01T06:04:43.100Z,10
2017-06-01T06:05:43.510Z,10
2017-06-01T06:06:42.910Z,10
2017-06-01T06:07:43.251Z,10
2017-06-01T06:08:43.908Z,10
2017-06-01T06:09:43.889Z,10
2017-06-01T06:10:43.962Z,10
2017-06-01T06:11:44.003Z,10
2017-06-01T06:12:44.041Z,10
2017-06-01T06:13:44.062Z,10
2017-06-01T06:14:44.341Z,10
2017-06-01T06:15:44.122Z,10
2017-06-01T06:16:43.835Z,10
2017-06-01T06:17:44.189Z,10
2017-06-01T06:18:44.304Z,10
2017-06-01T06:19:44.479Z,10
2017-06-01T06:20:44.266Z,15
2017-06-01T06:21:43.366Z,15
2017-06-01T06:22:44.019Z,15
2017-06-01T06:23:44.363Z,15
2017-06-01T06:24:44.329Z,15
2017-06-01T06:25:44.410Z,15
2017-06-01T06:26:44.453Z,15
2017-06-01T06:27:43.852Z,15
2017-06-01T06:28:44.496Z,15
2017-06-01T06:29:44.485Z,15
2017-06-01T06:30:44.566Z,15
2017-06-01T06:31:43.655Z,15
2017-06-01T06:32:44.622Z,15
2017-06-01T06:33:44.648Z,15
2017-06-01T06:34:44.620Z,15
2017-06-01T06:35:44.086Z,10
2017-06-01T06:36:44.135Z,10
2017-06-01T06:37:44.767Z,10
2017-06-01T06:38:44.800Z,10
2017-06-01T06:39:44.769Z,10
2017-06-01T06:40:44.855Z,10
2017-06-01T06:41:44.887Z,10
2017-06-01T06:42:44.303Z,10
2017-06-01T06:43:45.011Z,10
2017-06-01T06:44:44.925Z,10
2017-06-01T06:45:44.706Z,10
2017-06-01T06:46:44.415Z,10
2017-06-01T06:47:45.072Z,10
2017-06-01T06:48:44.483Z,10
2017-06-01T06:49:44.760Z,10
2017-06-01T06:50:44.850Z,10
2017-06-01T06:51:45.195Z,10
2017-06-01T06:52:45.232Z,10
2017-06-01T06:53:44.940Z,10
2017-06-01T06:54:45.215Z,10
2017-06-01T06:55:44.685Z,15
2017-06-01T06:56:44.718Z,15
2017-06-01T06:57:45.055Z,15
2017-06-01T06:58:45.093Z,15
2017-06-01T06:59:45.376Z,15
2017-06-01T07:00:45.158Z,15
2017-06-01T07:01:45.483Z,15
2017-06-01T07:02:45.524Z,15
2017-06-01T07:03:45.237Z,15
2017-06-01T07:04:45.777Z,15
2017-06-01T07:05:45.610Z,15
2017-06-01T07:06:45.339Z,15
2017-06-01T07:07:45.348Z,15
2017-06-01T07:08:45.405Z,15
2017-06-01T07:09:45.668Z,15
2017-06-01T07:10:45.139Z,15
2017-06-01T07:11:45.791Z,15
2017-06-01T07:12:45.823Z,15
2017-06-01T07:13:45.528Z,15
2017-06-01T07:14:45.817Z,15
2017-06-01T07:15:45.602Z,15
2017-06-01T07:16:45.943Z,15
2017-06-01T07:17:45.660Z,15
2017-06-01T07:18:45.064Z,15
2017-06-01T07:19:45.969Z,15
2017-06-01T07:20:45.746Z,15
2017-06-01T07:21:45.152Z,15
2017-06-01T07:22:45.500Z,15
2017-06-01T07:23:46.154Z,15
2017-06-01T07:24:46.376Z,15
2017-06-01T07:25:46.210Z,15
2017-06-01T07:26:45.930Z,15
2017-06-01T07:27:45.963Z,15
2017-06-01T07:28:46.305Z,15
2017-06-01T07:29:46.326Z,15
2017-06-01T07:30:46.307Z,15
2017-06-01T07:31:45.763Z,15
2017-06-01T07:32:46.105Z,15
2017-06-01T07:33:45.827Z,15
2017-06-01T07:34:45.856Z,15
2017-06-01T07:35:46.403Z,15
2017-06-01T07:36:46.227Z,15
2017-06-01T07:37:45.951Z,15
2017-06-01T07:38:46.300Z,15
2017-06-01T07:39:46.319Z,15
2017-06-01T07:40:46.552Z,15
2017-06-01T07:41:46.689Z,15
2017-06-01T07:42:46.724Z,20
2017-06-01T07:43:46.128Z,20
2017-06-01T07:44:46.473Z,20
2017-06-01T07:45:46.765Z,20
2017-06-01T07:46:46.552Z,20
2017-06-01T07:47:46.564Z,20
2017-06-01T07:48:46.589Z,20
2017-06-01T07:49:46.622Z,20
2017-06-01T07:50:47.150Z,20
2017-06-01T07:51:46.680Z,20
2017-06-01T07:52:46.083Z,20
2017-06-01T07:53:47.044Z,20
2017-06-01T07:54:47.081Z,20
2017-06-01T07:55:47.002Z,20
2017-06-01T07:56:46.827Z,20
2017-06-01T07:57:46.552Z,20
2017-06-01T07:58:46.603Z,20
2017-06-01T07:59:46.926Z,20
2017-06-01T08:00:47.471Z,20
2017-06-01T08:01:46.668Z,20
2017-06-01T08:02:47.324Z,20
2017-06-01T08:03:47.036Z,20
2017-06-01T08:04:46.770Z,20
2017-06-01T08:05:47.673Z,20
2017-06-01T08:06:46.820Z,20
2017-06-01T08:07:47.163Z,20
2017-06-01T08:08:47.187Z,20
2017-06-01T08:09:46.914Z,20
2017-06-01T08:10:47.148Z,20
2017-06-01T08:11:47.284Z,20
2017-06-01T08:12:47.628Z,20
2017-06-01T08:13:47.028Z,20
2017-06-01T08:14:47.690Z,20
2017-06-01T08:15:47.315Z,20
2017-06-01T08:16:47.750Z,20
2017-06-01T08:17:47.466Z,20
2017-06-01T08:18:47.506Z,20
2017-06-01T08:19:47.533Z,20
2017-06-01T08:20:47.755Z,20
2017-06-01T08:21:47.891Z,20
2017-06-01T08:22:47.936Z,20
2017-06-01T08:23:47.956Z,20
2017-06-01T08:24:47.978Z,20
2017-06-01T08:25:47.907Z,20
2017-06-01T08:26:47.749Z,20
2017-06-01T08:27:47.772Z,20
2017-06-01T08:28:47.176Z,20
2017-06-01T08:29:48.134Z,20
2017-06-01T08:30:47.737Z,20
2017-06-01T08:31:47.891Z,20
2017-06-01T08:32:47.917Z,20
2017-06-01T08:33:47.949Z,20
2017-06-01T08:34:48.295Z,15
2017-06-01T08:35:48.532Z,15
2017-06-01T08:36:48.044Z,15
2017-06-01T08:37:48.382Z,15
2017-06-01T08:38:47.783Z,15
2017-06-01T08:39:48.446Z,15
2017-06-01T08:40:48.684Z,15
2017-06-01T08:41:48.201Z,20
2017-06-01T08:42:48.209Z,20
2017-06-01T08:43:48.255Z,20
2017-06-01T08:44:48.292Z,20
2017-06-01T08:45:48.715Z,20
2017-06-01T08:46:48.653Z,20
2017-06-01T08:47:48.685Z,20
2017-06-01T08:48:48.444Z,20
2017-06-01T08:49:48.126Z,20
2017-06-01T08:50:48.704Z,20
2017-06-01T08:51:48.804Z,20
2017-06-01T08:52:48.232Z,25
2017-06-01T08:53:48.299Z,25
2017-06-01T08:54:48.899Z,25
2017-06-01T08:55:48.507Z,25
2017-06-01T08:56:48.647Z,25
2017-06-01T08:57:48.674Z,25
2017-06-01T08:58:49.022Z,25
2017-06-01T08:59:49.063Z,25
2017-06-01T09:00:49.291Z,25
2017-06-01T09:01:49.107Z,25
2017-06-01T09:02:48.833Z,25
2017-06-01T09:03:48.941Z,25
2017-06-01T09:04:48.891Z,25
2017-06-01T09:05:49.428Z,25
2017-06-01T09:06:48.943Z,20
2017-06-01T09:07:48.684Z,20
2017-06-01T09:08:48.706Z,20
2017-06-01T09:09:49.351Z,20
2017-06-01T09:10:49.275Z,20
2017-06-01T09:11:49.416Z,20
2017-06-01T09:12:48.816Z,20
2017-06-01T09:13:49.474Z,20
2017-06-01T09:14:49.191Z,20
2017-06-01T09:15:49.728Z,20
2017-06-01T09:16:49.568Z,20
2017-06-01T09:17:49.284Z,20
2017-06-01T09:18:49.619Z,20
2017-06-01T09:19:49.339Z,25
2017-06-01T09:20:49.255Z,25
2017-06-01T09:21:48.784Z,25
2017-06-01T09:22:49.120Z,25
2017-06-01T09:23:49.777Z,25
2017-06-01T09:24:49.807Z,25
2017-06-01T09:25:49.416Z,25
2017-06-01T09:26:49.558Z,25
2017-06-01T09:27:49.909Z,25
2017-06-01T09:28:49.925Z,25
2017-06-01T09:29:49.649Z,25
2017-06-01T09:30:49.926Z,25
2017-06-01T09:31:49.704Z,25
2017-06-01T09:32:49.742Z,25
2017-06-01T09:33:49.770Z,25
2017-06-01T09:34:50.117Z,25
2017-06-01T09:35:50.060Z,25
2017-06-01T09:36:49.224Z,25
2017-06-01T09:37:49.899Z,25
2017-06-01T09:38:49.919Z,25
2017-06-01T09:39:49.953Z,25
2017-06-01T09:40:49.876Z,25
2017-06-01T09:41:50.008Z,25
2017-06-01T09:42:50.095Z,25
2017-06-01T09:43:49.759Z,25
2017-06-01T09:44:50.103Z,25
2017-06-01T09:45:50.643Z,25
2017-06-01T09:46:49.836Z,25
2017-06-01T09:47:50.198Z,25
2017-06-01T09:48:50.542Z,25
2017-06-01T09:49:50.249Z,25
2017-06-01T09:50:49.968Z,25
2017-06-01T09:51:50.513Z,25
2017-06-01T09:52:50.662Z,30
2017-06-01T09:53:50.382Z,25
2017-06-01T09:54:50.101Z,25
2017-06-01T09:55:50.759Z,25
2017-06-01T09:56:50.665Z,25
2017-06-01T09:57:50.817Z,25
2017-06-01T09:58:50.215Z,25
2017-06-01T09:59:50.570Z,25
2017-06-01T10:00:50.282Z,25
2017-06-01T10:01:51.141Z,25
2017-06-01T10:02:50.654Z,25
2017-06-01T10:03:50.383Z,25
2017-06-01T10:04:51.029Z,25
2017-06-01T10:05:50.750Z,25
2017-06-01T10:06:51.291Z,25
2017-06-01T10:07:51.113Z,25
2017-06-01T10:08:50.830Z,25
2017-06-01T10:09:50.885Z,25
2017-06-01T10:10:50.578Z,25
2017-06-01T10:11:51.124Z,25
2017-06-01T10:12:50.950Z,25
2017-06-01T10:13:50.994Z,30
2017-06-01T10:14:51.015Z,30
2017-06-01T10:15:50.749Z,30
2017-06-01T10:16:50.653Z,30
2017-06-01T10:17:51.425Z,30
2017-06-01T10:18:50.834Z,30
2017-06-01T10:19:51.172Z,30
2017-06-01T10:20:51.520Z,30
2017-06-01T10:21:51.427Z,30
2017-06-01T10:22:51.262Z,30
2017-06-01T10:23:50.987Z,30
2017-06-01T10:24:51.636Z,30
2017-06-01T10:25:51.865Z,30
2017-06-01T10:26:51.270Z,30
2017-06-01T10:27:51.413Z,30
2017-06-01T10:28:51.443Z,30
2017-06-01T10:29:51.501Z,30
2017-06-01T10:30:51.821Z,30
2017-06-01T10:31:52.059Z,30
2017-06-01T10:32:51.879Z,30
2017-06-01T10:33:51.604Z,30
2017-06-01T10:34:51.024Z,30
2017-06-01T10:35:51.664Z,35
2017-06-01T10:36:51.901Z,35
2017-06-01T10:37:51.401Z,35
2017-06-01T10:38:52.067Z,35
2017-06-01T10:39:51.779Z,35
2017-06-01T10:40:51.508Z,35
2017-06-01T10:41:52.044Z,35
2017-06-01T10:42:51.558Z,35
2017-06-01T10:43:51.924Z,35
2017-06-01T10:44:51.936Z,35
2017-06-01T10:45:51.972Z,35
2017-06-01T10:46:51.886Z,35
2017-06-01T10:47:52.045Z,35
2017-06-01T10:48:52.132Z,35
2017-06-01T10:49:52.404Z,35
2017-06-01T10:50:52.437Z,35
2017-06-01T10:51:52.351Z,35
2017-06-01T10:52:52.502Z,35
2017-06-01T10:53:52.531Z,35
2017-06-01T10:54:52.560Z,35
2017-06-01T10:55:52.273Z,35
2017-06-01T10:56:52.812Z,40
2017-06-01T10:57:52.658Z,40
2017-06-01T10:58:52.368Z,40
2017-06-01T10:59:52.717Z,40
2017-06-01T11:00:52.425Z,40
2017-06-01T11:01:53.025Z,40
2017-06-01T11:02:52.486Z,30
2017-06-01T11:03:52.511Z,30
2017-06-01T11:04:52.860Z,35
2017-06-01T11:05:52.589Z,40
2017-06-01T11:06:52.813Z,40
2017-06-01T11:07:52.330Z,40
2017-06-01T11:08:52.373Z,40
2017-06-01T11:09:52.700Z,40
2017-06-01T11:10:52.737Z,45
2017-06-01T11:11:52.661Z,45
2017-06-01T11:12:52.799Z,45
2017-06-01T11:13:53.147Z,45
2017-06-01T11:14:52.557Z,45
2017-06-01T11:15:52.885Z,45
2017-06-01T11:16:53.120Z,45
2017-06-01T11:17:53.262Z,45
2017-06-01T11:18:52.671Z,45
2017-06-01T11:19:53.014Z,45
2017-06-01T11:20:53.041Z,50
2017-06-01T11:21:53.280Z,50
2017-06-01T11:22:53.106Z,50
2017-06-01T11:23:53.165Z,50
2017-06-01T11:24:53.172Z,50
2017-06-01T11:25:53.202Z,55
2017-06-01T11:26:53.790Z,60
2017-06-01T11:27:53.577Z,65
2017-06-01T11:28:53.596Z,65
2017-06-01T11:29:53.636Z,70
2017-06-01T11:30:53.668Z,80
2017-06-01T11:31:53.586Z,85
2017-06-01T11:32:53.726Z,90
2017-06-01T11:33:53.763Z,100
2017-06-01T11:34:53.780Z,130
2017-06-01T11:35:53.509Z,270
2017-06-01T11:36:54.102Z,385
2017-06-01T11:37:53.573Z,420
2017-06-01T11:38:53.603Z,460
2017-06-01T11:39:53.633Z,510
2017-06-01T11:40:53.662Z,530
2017-06-01T11:41:53.942Z,440
2017-06-01T11:42:53.414Z,450
2017-06-01T11:43:53.453Z,475
2017-06-01T11:44:54.104Z,585
2017-06-01T11:45:54.126Z,515
2017-06-01T11:46:54.418Z,465
2017-06-01T11:47:54.195Z,515
2017-06-01T11:48:53.604Z,420
2017-06-01T11:49:53.951Z,495
2017-06-01T11:50:54.290Z,500
2017-06-01T11:51:53.971Z,540
2017-06-01T11:52:54.051Z,605
2017-06-01T11:53:53.762Z,560
2017-06-01T11:54:54.421Z,545
2017-06-01T11:55:54.463Z,485
2017-06-01T11:56:54.689Z,410
2017-06-01T11:57:54.199Z,430
2017-06-01T11:58:54.243Z,430
2017-06-01T11:59:54.578Z,380
2017-06-01T12:00:54.298Z,400
2017-06-01T12:01:54.222Z,415
2017-06-01T12:02:54.052Z,410
2017-06-01T12:03:54.712Z,435
2017-06-01T12:04:54.449Z,465
2017-06-01T12:05:54.466Z,485
2017-06-01T12:06:55.005Z,430
2017-06-01T12:07:54.540Z,365
2017-06-01T12:08:54.569Z,475
2017-06-01T12:09:54.289Z,420
2017-06-01T12:10:54.323Z,500
2017-06-01T12:11:54.911Z,555
2017-06-01T12:12:54.695Z,400
2017-06-01T12:13:54.436Z,370
2017-06-01T12:14:54.462Z,320
2017-06-01T12:15:55.114Z,490
2017-06-01T12:16:54.794Z,360
2017-06-01T12:17:55.187Z,600
2017-06-01T12:18:55.215Z,475
2017-06-01T12:19:54.933Z,450
2017-06-01T12:20:55.278Z,290
2017-06-01T12:21:55.775Z,430
2017-06-01T12:22:55.038Z,270
2017-06-01T12:23:55.392Z,340
2017-06-01T12:24:54.818Z,490
2017-06-01T12:25:55.141Z,260
2017-06-01T12:26:54.879Z,595
2017-06-01T12:27:55.724Z,580
2017-06-01T12:28:55.565Z,600
2017-06-01T12:29:55.288Z,610
2017-06-01T12:30:55.626Z,685
2017-06-01T12:31:55.667Z,540
2017-06-01T12:32:55.598Z,560
2017-06-01T12:33:55.417Z,695
2017-06-01T12:34:55.773Z,665
2017-06-01T12:35:55.807Z,665
2017-06-01T12:36:55.218Z,670
2017-06-01T12:37:55.461Z,690
2017-06-01T12:38:55.284Z,600
2017-06-01T12:39:55.010Z,585
2017-06-01T12:40:55.360Z,575
2017-06-01T12:41:56.074Z,775
2017-06-01T12:42:55.316Z,1090
2017-06-01T12:43:56.096Z,975
2017-06-01T12:44:55.490Z,735
2017-06-01T12:45:56.166Z,645
2017-06-01T12:46:55.884Z,900
2017-06-01T12:47:56.488Z,890
2017-06-01T12:48:55.641Z,710
2017-06-01T12:49:55.998Z,755
2017-06-01T12:50:56.032Z,1120
2017-06-01T12:51:56.055Z,1295
2017-06-01T12:52:56.604Z,1000
2017-06-01T12:53:56.145Z,995
2017-06-01T12:54:56.178Z,1050
2017-06-01T12:55:56.211Z,890
2017-06-01T12:56:55.995Z,670
2017-06-01T12:57:56.531Z,380
2017-06-01T12:58:56.316Z,220
2017-06-01T12:59:56.660Z,195
2017-06-01T13:00:56.386Z,190
2017-06-01T13:01:56.419Z,180
2017-06-01T13:02:56.652Z,170
2017-06-01T13:03:56.489Z,170
2017-06-01T13:04:56.828Z,165
2017-06-01T13:05:56.874Z,165
2017-06-01T13:06:56.911Z,165
2017-06-01T13:07:57.149Z,160
2017-06-01T13:08:56.673Z,160
2017-06-01T13:09:57.027Z,160
2017-06-01T13:10:56.448Z,155
2017-06-01T13:11:56.468Z,155
2017-06-01T13:12:56.704Z,150
2017-06-01T13:13:56.537Z,150
2017-06-01T13:14:57.202Z,150
2017-06-01T13:15:57.237Z,150
2017-06-01T13:16:57.271Z,150
2017-06-01T13:17:57.192Z,145
2017-06-01T13:18:56.720Z,145
2017-06-01T13:19:57.075Z,150
2017-06-01T13:20:56.798Z,150
2017-06-01T13:21:57.143Z,130
2017-06-01T13:22:57.688Z,145
2017-06-01T13:23:57.208Z,140
2017-06-01T13:24:57.247Z,130
2017-06-01T13:25:57.279Z,130
2017-06-01T13:26:57.004Z,125
2017-06-01T13:27:57.864Z,130
2017-06-01T13:28:57.701Z,125
2017-06-01T13:29:57.734Z,125
2017-06-01T13:30:57.463Z,130
2017-06-01T13:31:57.493Z,135
2017-06-01T13:32:57.420Z,145
2017-06-01T13:33:57.261Z,140
2017-06-01T13:34:57.602Z,140
2017-06-01T13:35:57.959Z,135
2017-06-01T13:36:57.983Z,125
2017-06-01T13:37:57.305Z,75
2017-06-01T13:38:58.059Z,125
2017-06-01T13:39:57.161Z,75
2017-06-01T13:40:57.814Z,70
2017-06-01T13:41:57.853Z,100
2017-06-01T13:42:57.469Z,65
2017-06-01T13:43:58.234Z,60
2017-06-01T13:44:58.286Z,65
2017-06-01T13:45:57.695Z,65
2017-06-01T13:46:57.716Z,55
2017-06-01T13:47:58.265Z,50
2017-06-01T13:48:58.093Z,40
2017-06-01T13:49:57.847Z,35
2017-06-01T13:50:58.183Z,35
2017-06-01T13:51:58.513Z,35
2017-06-01T13:52:58.485Z,45
2017-06-01T13:53:58.274Z,50
2017-06-01T13:54:58.302Z,50
2017-06-01T13:55:58.652Z,55
2017-06-01T13:56:58.681Z,60
2017-06-01T13:57:58.912Z,55
2017-06-01T13:58:58.135Z,55
2017-06-01T13:59:58.484Z,60
2017-06-01T14:00:58.509Z,60
2017-06-01T14:01:58.228Z,55
2017-06-01T14:02:59.084Z,50
2017-06-01T14:03:58.602Z,50
2017-06-01T14:04:58.948Z,45
2017-06-01T14:05:58.989Z,45
2017-06-01T14:06:58.713Z,35
2017-06-01T14:07:58.988Z,45
2017-06-01T14:08:58.770Z,35
2017-06-01T14:09:58.805Z,40
2017-06-01T14:10:58.835Z,50
2017-06-01T14:11:59.192Z,45
2017-06-01T14:12:59.471Z,40
2017-06-01T14:13:59.256Z,70
2017-06-01T14:14:58.979Z,85
2017-06-01T14:15:58.999Z,75
2017-06-01T14:16:58.425Z,85
2017-06-01T14:17:59.602Z,95
2017-06-01T14:18:59.422Z,90
2017-06-01T14:19:58.828Z,85
2017-06-01T14:20:59.166Z,85
2017-06-01T14:21:59.204Z,85
2017-06-01T14:22:59.745Z,85